Time;durP1;ratioP1;P1;durP2;ratioP2;P2;SDS_P1;SDS_P2;PMS_P1;PMS_P2;Temp;Humidity;BMP_temperature;BMP_pressure;BME280_temperature;BME280_humidity;BME280_pressure;Samples;Min_cycle;Max_cycle;Signal;HPM_P1;HPM_P2
2022/10/11 00:00:24;;;;;;;8.77;2.73;;;;;;;17.06;100.00;102209.88;2066474;28;20186;-60
2022/10/11 00:01:24;;;;;;;6.87;2.63;;;;;;;17.05;100.00;102206.25;2066175;28;20186;-60
2022/10/11 00:02:25;;;;;;;5.50;2.30;;;;;;;17.08;100.00;102215.81;2066240;28;20990;-59
2022/10/11 00:03:25;;;;;;;7.07;2.60;;;;;;;17.04;100.00;102204.69;2069250;28;20185;-60
2022/10/11 00:04:26;;;;;;;5.47;2.40;;;;;;;17.06;100.00;102207.06;2070569;28;20196;-60
2022/10/11 00:05:26;;;;;;;6.53;2.73;;;;;;;17.08;100.00;102208.19;2066391;28;20182;-60
2022/10/11 00:06:26;;;;;;;5.23;2.70;;;;;;;17.08;100.00;102207.41;2066198;28;20261;-60
2022/10/11 00:07:27;;;;;;;5.87;2.70;;;;;;;17.08;100.00;102208.19;2066525;28;20205;-60
2022/10/11 00:08:27;;;;;;;8.30;3.00;;;;;;;17.07;100.00;102212.19;2066211;28;20186;-60
2022/10/11 00:09:29;;;;;;;5.10;2.60;;;;;;;17.07;100.00;102203.78;2066335;28;20585;-60
2022/10/11 00:10:29;;;;;;;7.60;2.80;;;;;;;16.80;100.00;102166.13;2066307;28;20201;-59
2022/10/11 00:11:30;;;;;;;6.97;3.17;;;;;;;16.98;100.00;102209.25;2065790;28;20447;-60
2022/10/11 00:12:31;;;;;;;5.77;2.93;;;;;;;16.66;100.00;102160.88;2066272;28;20181;-61
2022/10/11 00:13:32;;;;;;;7.80;2.80;;;;;;;16.86;100.00;102198.72;2066366;28;20212;-59
2022/10/11 00:14:33;;;;;;;9.57;2.80;;;;;;;16.97;100.00;102209.69;2066307;28;20952;-59
2022/10/11 00:15:34;;;;;;;7.17;2.83;;;;;;;16.98;100.00;102216.09;2058367;28;20432;-60
2022/10/11 00:16:34;;;;;;;8.73;2.70;;;;;;;16.98;100.00;102214.06;2064720;28;20440;-60
2022/10/11 00:17:35;;;;;;;4.53;2.60;;;;;;;16.96;100.00;102208.88;2066166;28;20197;-60
2022/10/11 00:18:36;;;;;;;6.97;3.07;;;;;;;16.98;100.00;102212.06;2066370;28;20184;-59
2022/10/11 00:19:36;;;;;;;4.83;2.50;;;;;;;16.98;100.00;102210.47;2066303;28;20180;-60
2022/10/11 00:20:36;;;;;;;9.30;2.97;;;;;;;16.96;100.00;102210.91;2066108;28;20174;-60
2022/10/11 00:21:38;;;;;;;9.03;2.93;;;;;;;16.64;100.00;102160.53;2072265;28;20187;-60
2022/10/11 00:22:39;;;;;;;5.40;2.60;;;;;;;16.95;100.00;102210.13;2066700;28;20194;-59
2022/10/11 00:23:40;;;;;;;4.87;2.43;;;;;;;16.94;100.00;102211.34;2066346;28;20417;-59
2022/10/11 00:24:41;;;;;;;5.53;2.80;;;;;;;16.95;100.00;102206.53;2066217;28;20498;-60
2022/10/11 00:25:41;;;;;;;5.07;2.57;;;;;;;16.94;100.00;102213.34;2066117;28;20459;-59
2022/10/11 00:26:42;;;;;;;7.80;2.80;;;;;;;16.63;100.00;102158.16;2065679;28;20205;-60
2022/10/11 00:27:43;;;;;;;8.90;3.00;;;;;;;16.87;100.00;102199.53;2066241;28;20174;-60
2022/10/11 00:28:44;;;;;;;4.80;2.60;;;;;;;16.85;100.00;102199.97;2066214;28;20430;-60
2022/10/11 00:29:45;;;;;;;5.70;3.20;;;;;;;16.88;100.00;102201.09;2065344;28;20222;-60
2022/10/11 00:30:45;;;;;;;6.13;3.03;;;;;;;16.86;100.00;102204.34;2065472;28;20181;-61
2022/10/11 00:31:45;;;;;;;11.50;2.97;;;;;;;16.84;100.00;102209.59;2066096;28;20232;-61
2022/10/11 00:32:46;;;;;;;8.80;3.20;;;;;;;16.80;100.00;102208.13;2066151;28;20194;-60
2022/10/11 00:33:46;;;;;;;6.63;3.00;;;;;;;16.75;100.00;102205.84;2065034;28;20700;-60
2022/10/11 00:34:47;;;;;;;7.87;2.60;;;;;;;16.29;100.00;102138.94;2065545;28;20191;-60
2022/10/11 00:35:47;;;;;;;4.50;2.97;;;;;;;16.70;100.00;102201.53;2066125;28;20629;-59
2022/10/11 00:36:48;;;;;;;7.47;3.27;;;;;;;16.71;100.00;102208.69;2066085;28;20192;-60
2022/10/11 00:37:48;;;;;;;7.90;3.00;;;;;;;16.63;100.00;102187.72;2066220;28;20176;-60
2022/10/11 00:38:49;;;;;;;6.03;2.70;;;;;;;16.67;100.00;102205.22;2065958;28;20215;-60
2022/10/11 00:39:49;;;;;;;10.27;3.23;;;;;;;16.67;100.00;102204.44;2065699;28;20175;-60
2022/10/11 00:40:50;;;;;;;8.37;3.10;;;;;;;16.27;100.00;102144.19;2066067;28;20644;-59
2022/10/11 00:41:50;;;;;;;11.13;3.80;;;;;;;16.65;100.00;102198.50;2066147;28;20197;-60
2022/10/11 00:42:51;;;;;;;6.37;3.23;;;;;;;16.45;100.00;102178.94;2066032;28;20197;-60
2022/10/11 00:44:13;;;;;;;6.80;3.07;;;;;;;16.55;100.00;102197.50;2066131;28;20210;-60
2022/10/11 00:45:25;;;;;;;7.30;3.20;;;;;;;16.52;100.00;102197.59;2066072;28;20224;-60
2022/10/11 00:46:30;;;;;;;6.20;3.17;;;;;;;16.21;100.00;102143.91;2065867;28;20422;-60
2022/10/11 00:47:30;;;;;;;11.03;3.03;;;;;;;16.46;100.00;102188.13;2059340;28;20498;-60
2022/10/11 00:48:44;;;;;;;7.27;3.10;;;;;;;15.84;100.00;102098.84;2056363;28;20453;-60
2022/10/11 00:49:49;;;;;;;9.53;3.53;;;;;;;16.38;100.00;102187.47;2061834;28;20626;-60
2022/10/11 00:50:49;;;;;;;6.57;3.33;;;;;;;16.39;100.00;102191.88;2065794;28;20912;-60
2022/10/11 00:51:52;;;;;;;8.37;2.80;;;;;;;16.40;100.00;102198.28;2065555;28;20420;-61
2022/10/11 00:52:56;;;;;;;9.80;2.90;;;;;;;16.21;100.00;102171.09;2065966;28;20178;-60
2022/10/11 00:54:00;;;;;;;10.73;3.40;;;;;;;16.37;100.00;102193.50;2065959;28;20456;-60
2022/10/11 00:55:06;;;;;;;6.87;3.20;;;;;;;16.42;100.00;102210.59;2066079;28;20469;-60
2022/10/11 00:56:13;;;;;;;6.03;3.20;;;;;;;16.38;100.00;102195.88;2058064;28;20400;-60
2022/10/11 00:57:18;;;;;;;8.37;2.80;;;;;;;16.33;100.00;102196.38;2065560;28;20478;-59
2022/10/11 00:58:22;;;;;;;5.37;3.10;;;;;;;16.39;100.00;102199.50;2065652;28;20421;-60
2022/10/11 00:59:26;;;;;;;7.77;3.10;;;;;;;16.39;100.00;102210.69;2065947;28;20413;-59
2022/10/11 01:00:27;;;;;;;11.03;3.40;;;;;;;16.36;100.00;102209.53;2065621;28;20958;-61
2022/10/11 01:01:27;;;;;;;4.93;3.23;;;;;;;16.36;100.00;102203.13;2065836;28;20836;-59
2022/10/11 01:02:29;;;;;;;10.37;3.37;;;;;;;16.35;100.00;102209.94;2065796;28;20188;-60
2022/10/11 01:03:35;;;;;;;6.60;3.30;;;;;;;16.24;100.00;102187.03;2066009;28;20174;-60
2022/10/11 01:04:35;;;;;;;7.83;3.10;;;;;;;16.05;100.00;102160.66;2066008;28;20421;-60
2022/10/11 01:05:37;;;;;;;9.13;3.37;;;;;;;16.31;100.00;102209.22;2058120;28;20495;-60
2022/10/11 01:06:40;;;;;;;6.63;3.20;;;;;;;16.31;100.00;102200.84;2064217;28;20187;-60
2022/10/11 01:07:42;;;;;;;9.43;3.70;;;;;;;16.31;100.00;102203.63;2065580;28;20434;-60
2022/10/11 01:08:43;;;;;;;6.90;3.33;;;;;;;16.23;100.00;102188.22;2065785;28;20493;-59
2022/10/11 01:09:43;;;;;;;8.03;3.33;;;;;;;16.26;100.00;102204.94;2062784;28;20442;-59
2022/10/11 01:10:44;;;;;;;6.23;3.00;;;;;;;16.22;100.00;102203.44;2059665;28;20922;-59
2022/10/11 01:11:46;;;;;;;5.07;3.20;;;;;;;16.16;100.00;102205.16;2065754;28;20250;-60
2022/10/11 01:13:05;;;;;;;6.03;3.47;;;;;;;16.14;100.00;102200.00;2065759;28;20189;-60
2022/10/11 01:14:30;;;;;;;7.07;3.40;;;;;;;16.11;100.00;102197.28;2057958;28;20457;-60
2022/10/11 01:15:39;;;;;;;7.47;3.20;;;;;;;15.93;100.00;102182.91;2065129;28;20483;-59
2022/10/11 01:17:02;;;;;;;8.03;3.50;;;;;;;16.03;100.00;102202.25;2063343;28;20413;-59
2022/10/11 01:18:24;;;;;;;10.00;3.40;;;;;;;15.97;100.00;102189.19;2061004;28;20441;-61
2022/10/11 01:19:33;;;;;;;7.57;3.53;;;;;;;15.98;100.00;102204.78;2065621;28;20421;-59
2022/10/11 01:20:44;;;;;;;7.57;3.50;;;;;;;15.92;100.00;102198.88;2065923;28;20434;-60
2022/10/11 01:22:11;;;;;;;7.13;3.40;;;;;;;15.91;100.00;102199.31;2065807;28;21048;-60
2022/10/11 01:23:33;;;;;;;6.47;3.20;;;;;;;15.89;100.00;102196.94;2048757;29;20439;-60
2022/10/11 01:24:33;;;;;;;8.40;3.50;;;;;;;15.86;100.00;102195.03;2057668;28;20407;-59
2022/10/11 01:25:37;;;;;;;15.60;4.13;;;;;;;15.86;100.00;102192.22;2057763;28;20426;-60
2022/10/11 01:27:01;;;;;;;8.87;3.90;;;;;;;15.85;100.00;102196.25;2065159;28;20190;-61
2022/10/11 01:28:17;;;;;;;7.73;3.67;;;;;;;15.85;100.00;102192.66;2057701;28;20793;-59
2022/10/11 01:29:32;;;;;;;9.20;4.20;;;;;;;15.84;100.00;102191.84;2058591;28;20434;-59
2022/10/11 01:30:35;;;;;;;9.67;3.67;;;;;;;15.82;100.00;102187.91;2063650;28;20431;-60
2022/10/11 01:31:45;;;;;;;11.20;3.47;;;;;;;15.81;100.00;102189.13;2058525;28;20957;-60
2022/10/11 01:33:10;;;;;;;8.33;3.60;;;;;;;15.80;100.00;102190.38;2065691;28;20413;-60
2022/10/11 01:34:24;;;;;;;6.77;3.80;;;;;;;15.58;100.00;102153.66;2065434;28;20429;-59
2022/10/11 01:35:39;;;;;;;5.97;3.50;;;;;;;15.80;100.00;102187.56;2065640;28;20413;-60
2022/10/11 01:36:55;;;;;;;6.50;3.23;;;;;;;15.79;100.00;102183.19;2065500;28;20433;-60
2022/10/11 01:38:05;;;;;;;6.63;3.50;;;;;;;15.68;100.00;102169.44;2065646;28;20417;-60
2022/10/11 01:39:12;;;;;;;7.17;3.67;;;;;;;15.73;100.00;102180.09;2065709;28;20406;-59
2022/10/11 01:40:31;;;;;;;8.63;3.40;;;;;;;15.69;100.00;102178.63;2065646;28;20894;-60
2022/10/11 01:41:38;;;;;;;9.67;3.80;;;;;;;15.69;100.00;102178.63;2065424;28;20437;-60
2022/10/11 01:42:40;;;;;;;9.13;3.70;;;;;;;15.69;100.00;102185.00;2065558;28;20437;-60
2022/10/11 01:43:41;;;;;;;7.13;3.60;;;;;;;15.39;100.00;102136.91;2065588;28;20430;-60
2022/10/11 01:44:46;;;;;;;6.77;3.60;;;;;;;15.68;100.00;102183.41;2065621;28;20522;-59
2022/10/11 01:45:52;;;;;;;10.53;4.00;;;;;;;15.20;100.00;102110.50;2061608;28;20445;-59
2022/10/11 01:46:52;;;;;;;6.93;3.90;;;;;;;15.65;100.00;102178.69;2057674;28;20501;-59
2022/10/11 01:48:08;;;;;;;9.63;3.77;;;;;;;15.33;100.00;102128.25;2059558;28;20443;-59
2022/10/11 01:49:08;;;;;;;8.33;4.27;;;;;;;15.56;100.00;102164.50;2065269;28;20269;-59
2022/10/11 01:50:33;;;;;;;6.33;3.90;;;;;;;15.59;100.00;102171.22;2062955;28;20410;-59
2022/10/11 01:51:38;;;;;;;9.00;4.00;;;;;;;15.60;100.00;102175.59;2057172;28;20172;-60
2022/10/11 01:52:43;;;;;;;10.27;3.57;;;;;;;15.54;100.00;102166.94;2057614;28;20418;-59
2022/10/11 01:54:21;;;;;;;9.97;3.67;;;;;;;15.54;100.00;102180.91;2060017;28;20458;-59
2022/10/11 01:55:35;;;;;;;9.17;3.80;;;;;;;15.55;100.00;102178.88;2064771;28;20449;-60
2022/10/11 01:57:22;;;;;;;9.40;3.73;;;;;;;15.52;100.00;102176.97;2065501;28;20508;-60
2022/10/11 01:58:31;;;;;;;9.17;4.67;;;;;;;15.49;100.00;102180.63;2065243;28;20441;-60
2022/10/11 01:59:34;;;;;;;10.27;4.70;;;;;;;15.48;100.00;102171.44;2065189;28;20456;-60
2022/10/11 02:01:12;;;;;;;11.60;4.30;;;;;;;15.48;100.00;102167.88;2065309;28;20421;-60
2022/10/11 02:02:32;;;;;;;12.17;4.83;;;;;;;15.43;100.00;102163.53;2063821;28;20450;-60
2022/10/11 02:04:03;;;;;;;11.17;4.37;;;;;;;15.41;100.00;102165.19;2065432;28;20425;-60
2022/10/11 02:05:25;;;;;;;13.03;4.73;;;;;;;15.38;100.00;102172.41;2057997;28;20411;-59
2022/10/11 02:06:44;;;;;;;18.03;4.87;;;;;;;15.35;100.00;102172.50;2065301;28;20417;-60
2022/10/11 02:08:14;;;;;;;14.80;4.37;;;;;;;15.29;100.00;102180.56;2065187;28;20467;-59
2022/10/11 02:09:41;;;;;;;14.53;4.60;;;;;;;15.04;100.00;102149.50;2061857;28;20830;-59
2022/10/11 02:10:48;;;;;;;9.63;4.80;;;;;;;15.26;100.00;102169.47;2065269;28;20552;-60
2022/10/11 02:11:51;;;;;;;10.00;4.27;;;;;;;15.25;100.00;102179.84;2065228;28;20441;-61
2022/10/11 02:13:15;;;;;;;16.53;4.93;;;;;;;15.23;100.00;102165.53;2065249;28;20526;-60
2022/10/11 02:14:23;;;;;;;15.20;4.97;;;;;;;15.22;100.00;102168.72;2065362;28;20428;-60
2022/10/11 02:15:27;;;;;;;15.33;5.43;;;;;;;15.21;100.00;102169.97;2064983;28;20461;-59
2022/10/11 02:16:33;;;;;;;26.20;6.10;;;;;;;15.10;100.00;102158.97;2065044;28;20460;-59
2022/10/11 02:17:41;;;;;;;27.83;5.87;;;;;;;15.17;100.00;102170.00;2065373;28;20942;-59
2022/10/11 02:18:46;;;;;;;26.87;6.10;;;;;;;14.91;100.00;102126.19;2065228;28;20438;-60
2022/10/11 02:19:51;;;;;;;21.70;5.60;;;;;;;15.17;100.00;102170.00;2064981;28;20441;-60
2022/10/11 02:20:52;;;;;;;24.03;6.33;;;;;;;15.18;100.00;102173.59;2065241;28;20430;-60
2022/10/11 02:22:00;;;;;;;16.63;5.27;;;;;;;15.18;100.00;102187.56;2065285;28;20417;-59
2022/10/11 02:23:08;;;;;;;17.23;6.03;;;;;;;15.17;100.00;102177.59;2064840;28;20871;-60
2022/10/11 02:24:14;;;;;;;13.87;5.60;;;;;;;15.16;100.00;102182.38;2065286;28;20966;-60
2022/10/11 02:25:22;;;;;;;15.30;5.97;;;;;;;15.15;100.00;102180.81;2065359;28;20899;-61
2022/10/11 02:26:26;;;;;;;19.13;5.37;;;;;;;14.69;100.00;102111.06;2065285;28;20421;-60
2022/10/11 02:27:32;;;;;;;11.00;4.97;;;;;;;15.17;100.00;102178.38;2065197;28;20839;-60
2022/10/11 02:28:36;;;;;;;12.90;4.90;;;;;;;14.79;100.00;102115.66;2065256;28;20429;-60
2022/10/11 02:29:40;;;;;;;14.37;5.17;;;;;;;15.18;100.00;102170.78;2065089;28;20875;-59
2022/10/11 02:30:44;;;;;;;11.40;5.23;;;;;;;15.15;100.00;102177.22;2065099;28;20495;-59
2022/10/11 02:31:47;;;;;;;10.50;4.53;;;;;;;15.15;100.00;102174.44;2065110;28;21012;-60
2022/10/11 02:32:50;;;;;;;14.90;5.00;;;;;;;15.16;100.00;102173.25;2065020;28;20810;-59
2022/10/11 02:34:30;;;;;;;11.60;4.83;;;;;;;15.12;100.00;102166.91;2065022;28;20417;-59
2022/10/11 02:35:37;;;;;;;13.23;4.47;;;;;;;15.14;100.00;102175.66;2056243;28;20430;-60
2022/10/11 02:36:41;;;;;;;10.73;5.10;;;;;;;15.11;100.00;102171.72;2056107;28;20462;-59
2022/10/11 02:37:48;;;;;;;12.97;5.13;;;;;;;15.12;100.00;102169.72;2056000;28;20509;-59
2022/10/11 02:38:57;;;;;;;12.80;5.10;;;;;;;15.12;100.00;102178.09;2055765;28;20434;-60
2022/10/11 02:40:01;;;;;;;8.80;4.50;;;;;;;15.12;100.00;102175.31;2055635;28;20526;-59
2022/10/11 02:41:20;;;;;;;8.73;4.40;;;;;;;14.57;100.00;102092.13;2055287;28;20435;-59
2022/10/11 02:42:29;;;;;;;14.27;5.10;;;;;;;15.14;100.00;102172.84;2065206;28;20406;-59
2022/10/11 02:43:38;;;;;;;16.43;4.97;;;;;;;14.99;100.00;102155.59;2064900;28;20410;-59
2022/10/11 02:44:46;;;;;;;15.30;5.20;;;;;;;14.98;100.00;102150.41;2065093;28;20421;-59
2022/10/11 02:45:51;;;;;;;13.90;4.80;;;;;;;15.04;100.00;102157.09;2065081;28;20433;-60
2022/10/11 02:46:53;;;;;;;11.10;4.67;;;;;;;15.06;100.00;102172.19;2065041;28;20563;-60
2022/10/11 02:47:54;;;;;;;15.23;5.10;;;;;;;15.02;100.00;102170.69;2064958;28;20931;-59
2022/10/11 02:48:58;;;;;;;13.30;4.87;;;;;;;14.67;100.00;102107.09;2065076;28;20475;-60
2022/10/11 02:49:59;;;;;;;13.50;5.60;;;;;;;14.92;100.00;102147.34;2065131;28;20418;-60
2022/10/11 02:50:59;;;;;;;13.23;4.93;;;;;;;15.05;100.00;102167.03;2065082;28;20425;-59
2022/10/11 02:52:02;;;;;;;17.33;4.90;;;;;;;15.03;100.00;102167.47;2065114;28;20198;-60
2022/10/11 02:53:03;;;;;;;14.30;4.47;;;;;;;15.04;100.00;102169.06;2060282;28;20643;-60
2022/10/11 02:54:04;;;;;;;15.70;5.30;;;;;;;15.02;100.00;102173.47;2060590;28;20439;-59
2022/10/11 02:55:05;;;;;;;12.33;4.90;;;;;;;15.03;100.00;102175.84;2065156;28;20509;-60
2022/10/11 02:56:06;;;;;;;11.83;5.13;;;;;;;15.02;100.00;102170.69;2064869;28;20255;-60
2022/10/11 02:57:06;;;;;;;14.13;5.20;;;;;;;14.98;100.00;102167.16;2064764;28;20500;-59
2022/10/11 02:58:07;;;;;;;11.87;4.93;;;;;;;14.77;100.00;102137.63;2057196;28;20182;-60
2022/10/11 02:59:07;;;;;;;11.33;5.37;;;;;;;15.00;100.00;102176.69;2064202;28;20663;-60
2022/10/11 03:00:08;;;;;;;11.30;4.70;;;;;;;15.00;100.00;102170.31;2064910;28;20234;-61
2022/10/11 03:01:09;;;;;;;11.67;5.20;;;;;;;14.97;100.00;102166.38;2064926;28;20184;-60
2022/10/11 03:02:10;;;;;;;8.70;4.93;;;;;;;14.51;100.00;102084.66;2065007;28;20429;-59
2022/10/11 03:03:10;;;;;;;9.37;4.83;;;;;;;14.98;100.00;102165.19;2065133;28;20220;-61
2022/10/11 03:04:11;;;;;;;14.17;5.90;;;;;;;14.68;100.00;102117.06;2065101;28;20942;-59
2022/10/11 03:05:12;;;;;;;16.53;5.80;;;;;;;14.65;100.00;102115.91;2065080;28;20190;-59
2022/10/11 03:06:12;;;;;;;14.83;5.90;;;;;;;14.99;100.00;102169.53;2065108;28;20787;-59
2022/10/11 03:07:13;;;;;;;17.67;5.77;;;;;;;14.99;100.00;102165.94;2064674;28;20256;-59
2022/10/11 03:08:15;;;;;;;11.87;5.40;;;;;;;14.99;100.00;102163.94;2065111;28;20188;-60
2022/10/11 03:09:15;;;;;;;11.87;5.30;;;;;;;15.00;100.00;102170.31;2061246;28;20449;-59
2022/10/11 03:10:16;;;;;;;14.27;5.20;;;;;;;15.00;100.00;102159.94;2057053;28;20465;-60
2022/10/11 03:11:16;;;;;;;11.70;5.43;;;;;;;14.96;100.00;102166.81;2057577;28;20679;-59
2022/10/11 03:12:17;;;;;;;10.63;5.27;;;;;;;14.93;100.00;102162.88;2065111;28;20232;-60
2022/10/11 03:13:17;;;;;;;10.37;4.33;;;;;;;14.95;100.00;102165.22;2064900;28;20182;-61
2022/10/11 03:14:17;;;;;;;10.67;4.90;;;;;;;14.95;100.00;102162.41;2064995;28;20270;-59
2022/10/11 03:15:18;;;;;;;14.17;5.50;;;;;;;14.92;100.00;102166.88;2064959;28;20191;-60
2022/10/11 03:16:18;;;;;;;18.10;5.77;;;;;;;14.91;100.00;102164.50;2064778;28;20182;-60
2022/10/11 03:17:19;;;;;;;13.37;5.40;;;;;;;14.89;100.00;102158.53;2064353;28;20183;-60
2022/10/11 03:18:20;;;;;;;11.23;5.27;;;;;;;14.82;100.00;102162.28;2064412;28;20174;-60
2022/10/11 03:19:20;;;;;;;12.83;5.80;;;;;;;14.73;100.00;102153.66;2056990;28;20559;-59
2022/10/11 03:20:22;;;;;;;15.63;5.50;;;;;;;14.70;100.00;102157.28;2063882;28;20437;-59
2022/10/11 03:21:24;;;;;;;10.40;5.60;;;;;;;14.70;100.00;102160.06;2059022;28;20195;-60
2022/10/11 03:22:24;;;;;;;8.33;5.00;;;;;;;14.57;100.00;102131.19;2061757;28;20429;-60
2022/10/11 03:23:24;;;;;;;15.13;5.00;;;;;;;14.72;100.00;102154.06;2064936;28;20483;-59
2022/10/11 03:24:25;;;;;;;13.20;5.43;;;;;;;14.71;100.00;102153.25;2064757;28;20181;-60
2022/10/11 03:25:26;;;;;;;15.87;5.40;;;;;;;14.62;100.00;102139.09;2064468;28;20236;-60
2022/10/11 03:26:26;;;;;;;11.50;5.83;;;;;;;14.71;100.00;102156.06;2057001;28;20731;-59
2022/10/11 03:27:27;;;;;;;12.90;5.57;;;;;;;14.71;100.00;102158.84;2063370;28;20225;-60
2022/10/11 03:28:28;;;;;;;12.13;5.83;;;;;;;14.74;100.00;102154.41;2065060;28;20190;-60
2022/10/11 03:29:28;;;;;;;13.10;5.83;;;;;;;14.75;100.00;102148.41;2065018;28;20489;-60
2022/10/11 03:30:28;;;;;;;8.83;4.80;;;;;;;14.78;100.00;102155.94;2065179;28;20201;-60
2022/10/11 03:31:29;;;;;;;7.67;4.70;;;;;;;14.76;100.00;102152.00;2065037;28;20176;-60
2022/10/11 03:32:29;;;;;;;10.60;4.37;;;;;;;14.75;100.00;102151.19;2064969;28;20184;-59
2022/10/11 03:33:30;;;;;;;9.73;5.13;;;;;;;14.74;100.00;102148.84;2064823;28;20202;-60
2022/10/11 03:34:30;;;;;;;8.00;4.73;;;;;;;14.68;100.00;102142.97;2064867;28;20656;-59
2022/10/11 03:35:31;;;;;;;10.10;5.37;;;;;;;14.74;100.00;102155.22;2064861;28;20224;-60
2022/10/11 03:36:31;;;;;;;12.07;5.67;;;;;;;14.75;100.00;102151.19;2064568;28;20707;-59
2022/10/11 03:37:31;;;;;;;11.83;5.03;;;;;;;14.76;100.00;102154.78;2064932;28;20209;-60
2022/10/11 03:38:32;;;;;;;10.50;5.13;;;;;;;14.77;100.00;102151.59;2064870;28;20201;-60
2022/10/11 03:39:32;;;;;;;14.40;5.17;;;;;;;14.75;100.00;102156.00;2065009;28;20182;-60
2022/10/11 03:40:33;;;;;;;17.43;5.20;;;;;;;14.79;100.00;102156.72;2058116;28;20223;-60
2022/10/11 03:41:33;;;;;;;14.53;5.50;;;;;;;14.79;100.00;102153.94;2057017;28;20191;-59
2022/10/11 03:42:34;;;;;;;13.93;5.20;;;;;;;14.41;100.00;102089.22;2061461;28;20236;-59
2022/10/11 03:43:35;;;;;;;15.20;5.67;;;;;;;14.78;100.00;102149.56;2064777;28;20182;-60
2022/10/11 03:44:37;;;;;;;12.47;5.30;;;;;;;14.73;100.00;102138.88;2065109;28;20413;-60
2022/10/11 03:45:38;;;;;;;14.70;4.93;;;;;;;14.77;100.00;102148.00;2065075;28;20170;-60
2022/10/11 03:46:38;;;;;;;14.50;5.60;;;;;;;14.59;100.00;102108.44;2064475;28;20418;-59
2022/10/11 03:47:39;;;;;;;11.73;5.30;;;;;;;14.80;100.00;102141.56;2057042;28;20202;-61
2022/10/11 03:48:40;;;;;;;12.40;5.27;;;;;;;14.83;100.00;102143.50;2056721;28;20238;-60
2022/10/11 03:49:40;;;;;;;12.27;5.27;;;;;;;14.84;100.00;102139.50;2063143;28;20676;-60
2022/10/11 03:50:41;;;;;;;11.30;5.40;;;;;;;14.86;100.00;102139.88;2064905;28;20383;-59
2022/10/11 03:51:41;;;;;;;12.30;5.07;;;;;;;14.87;100.00;102147.03;2064978;28;20186;-60
2022/10/11 03:52:42;;;;;;;11.63;5.00;;;;;;;14.86;100.00;102143.44;2064787;28;20188;-59
2022/10/11 03:53:42;;;;;;;16.50;5.00;;;;;;;14.86;100.00;102157.38;2064868;28;20644;-59
2022/10/11 03:54:42;;;;;;;18.47;5.33;;;;;;;14.86;100.00;102157.38;2064950;28;20182;-60
2022/10/11 03:55:43;;;;;;;12.77;5.53;;;;;;;14.88;100.00;102157.78;2064887;28;20175;-59
2022/10/11 03:56:44;;;;;;;12.90;5.67;;;;;;;14.86;100.00;102151.81;2064716;28;20218;-59
2022/10/11 03:57:44;;;;;;;11.07;4.90;;;;;;;14.88;100.00;102154.19;2064843;28;20186;-59
2022/10/11 03:58:45;;;;;;;11.47;5.60;;;;;;;14.88;100.00;102152.19;2064920;28;20210;-59
2022/10/11 03:59:46;;;;;;;22.77;6.03;;;;;;;14.90;100.00;102157.34;2064790;28;20216;-60
2022/10/11 04:00:48;;;;;;;10.50;5.50;;;;;;;14.88;100.00;102145.81;2064071;28;20349;-60
2022/10/11 04:01:48;;;;;;;9.67;4.80;;;;;;;14.87;100.00;102150.63;2061098;28;20555;-59
2022/10/11 04:02:48;;;;;;;9.27;5.10;;;;;;;14.87;100.00;102152.59;2063014;28;20425;-60
2022/10/11 04:03:49;;;;;;;10.13;5.63;;;;;;;14.86;100.00;102149.03;2061520;28;20194;-60
2022/10/11 04:04:49;;;;;;;7.57;5.23;;;;;;;14.87;100.00;102155.41;2061964;28;20178;-59
2022/10/11 04:05:50;;;;;;;12.33;4.90;;;;;;;14.83;100.00;102152.69;2063548;28;20274;-59
2022/10/11 04:06:50;;;;;;;11.93;5.57;;;;;;;14.82;100.00;102145.53;2060312;28;20210;-60
2022/10/11 04:07:51;;;;;;;14.20;5.43;;;;;;;14.81;100.00;102143.16;2059991;28;20187;-59
2022/10/11 04:08:51;;;;;;;11.00;5.63;;;;;;;14.72;100.00;102143.69;2061712;28;20580;-60
2022/10/11 04:09:52;;;;;;;12.07;5.40;;;;;;;14.68;100.00;102136.59;2060773;28;20272;-59
2022/10/11 04:10:52;;;;;;;11.93;5.27;;;;;;;14.69;100.00;102143.72;2061675;28;20190;-59
2022/10/11 04:11:52;;;;;;;11.33;4.70;;;;;;;14.60;100.00;102138.69;2063185;28;20188;-60
2022/10/11 04:12:53;;;;;;;9.43;4.60;;;;;;;14.54;100.00;102132.03;2061778;28;20245;-59
2022/10/11 04:13:53;;;;;;;10.93;5.53;;;;;;;14.51;100.00;102132.84;2059956;28;20183;-59
2022/10/11 04:14:54;;;;;;;9.73;5.53;;;;;;;14.44;100.00;102132.97;2064558;28;20217;-59
2022/10/11 04:15:54;;;;;;;10.03;4.87;;;;;;;14.42;100.00;102131.81;2062150;28;20193;-59
2022/10/11 04:16:55;;;;;;;8.73;5.03;;;;;;;14.41;100.00;102130.25;2062882;28;20190;-59
2022/10/11 04:17:55;;;;;;;13.80;5.57;;;;;;;14.41;100.00;102127.47;2062481;28;20193;-59
2022/10/11 04:18:55;;;;;;;15.33;5.40;;;;;;;14.41;100.00;102138.63;2068578;28;20214;-60
2022/10/11 04:19:56;;;;;;;11.63;5.00;;;;;;;14.43;100.00;102130.63;2062402;28;20753;-59
2022/10/11 04:20:56;;;;;;;11.00;5.20;;;;;;;14.42;100.00;102132.63;2059963;28;20187;-59
2022/10/11 04:21:57;;;;;;;11.20;6.83;;;;;;;14.44;100.00;102135.78;2060871;28;20214;-59
2022/10/11 04:22:57;;;;;;;9.37;6.20;;;;;;;14.47;100.00;102139.72;2060335;28;20202;-59
2022/10/11 04:23:58;;;;;;;12.17;6.07;;;;;;;14.49;100.00;102137.31;2062242;28;20214;-60
2022/10/11 04:24:58;;;;;;;11.90;6.90;;;;;;;14.49;100.00;102132.50;2063058;28;20221;-59
2022/10/11 04:26:02;;;;;;;10.43;6.07;;;;;;;14.46;100.00;102130.59;2065033;28;20645;-60
2022/10/11 04:27:03;;;;;;;10.33;6.07;;;;;;;14.24;100.00;102083.94;2060181;28;20206;-60
2022/10/11 04:28:04;;;;;;;11.50;5.83;;;;;;;14.44;100.00;102123.84;2063450;28;20440;-59
2022/10/11 04:29:04;;;;;;;9.87;6.00;;;;;;;14.45;100.00;102128.22;2062774;28;20191;-59
2022/10/11 04:30:06;;;;;;;11.60;6.23;;;;;;;14.46;100.00;102129.78;2063143;28;20190;-59
2022/10/11 04:31:06;;;;;;;10.00;5.70;;;;;;;14.37;100.00;102115.56;2062654;28;20284;-59
2022/10/11 04:32:07;;;;;;;14.40;5.90;;;;;;;14.37;100.00;102124.75;2061270;28;21029;-59
2022/10/11 04:33:10;;;;;;;9.23;5.73;;;;;;;14.38;100.00;102128.31;2064165;28;20190;-59
2022/10/11 04:34:10;;;;;;;12.03;5.80;;;;;;;14.38;100.00;102128.31;2058187;28;20620;-59
2022/10/11 04:35:11;;;;;;;10.27;6.13;;;;;;;14.38;100.00;102123.53;2059792;28;20519;-59
2022/10/11 04:36:11;;;;;;;10.20;5.70;;;;;;;14.40;100.00;102125.91;2061252;28;20734;-59
2022/10/11 04:37:12;;;;;;;11.77;6.10;;;;;;;14.40;100.00;102123.88;2061862;28;20190;-59
2022/10/11 04:38:12;;;;;;;12.67;5.70;;;;;;;14.42;100.00;102127.06;2061323;28;20304;-60
2022/10/11 04:39:12;;;;;;;13.93;6.73;;;;;;;14.38;100.00;102128.31;2059126;28;20196;-59
2022/10/11 04:40:13;;;;;;;9.57;5.77;;;;;;;14.36;100.00;102122.38;2065589;28;20652;-59
2022/10/11 04:41:14;;;;;;;9.77;5.90;;;;;;;13.93;100.00;102054.50;2063603;28;20670;-59
2022/10/11 04:42:15;;;;;;;9.80;6.00;;;;;;;14.36;100.00;102127.94;2058073;28;20186;-59
2022/10/11 04:43:16;;;;;;;16.67;6.70;;;;;;;14.37;100.00;102129.53;2058704;28;20456;-59
2022/10/11 04:44:17;;;;;;;18.60;10.30;;;;;;;14.36;100.00;102134.31;2059550;28;20188;-60
2022/10/11 04:45:17;;;;;;;15.03;7.87;;;;;;;13.72;100.00;102032.50;2058879;28;20944;-59
2022/10/11 04:46:18;;;;;;;18.37;10.00;;;;;;;14.41;100.00;102130.25;2057831;28;20255;-60
2022/10/11 04:47:18;;;;;;;25.67;9.93;;;;;;;14.33;100.00;102117.63;2058105;28;20271;-60
2022/10/11 04:48:18;;;;;;;15.47;9.37;;;;;;;14.42;100.00;102135.41;2057855;28;20229;-59
2022/10/11 04:49:19;;;;;;;15.33;10.70;;;;;;;14.46;100.00;102138.16;2059566;28;20780;-60
2022/10/11 04:50:19;;;;;;;13.27;9.33;;;;;;;14.50;100.00;102138.88;2061732;28;20200;-59
2022/10/11 04:51:21;;;;;;;19.13;9.50;;;;;;;14.52;100.00;102151.19;2061548;28;20193;-59
2022/10/11 04:52:22;;;;;;;17.67;10.60;;;;;;;14.56;100.00;102134.41;2063082;28;20247;-60
2022/10/11 04:53:23;;;;;;;20.90;9.93;;;;;;;14.58;100.00;102129.19;2061504;28;20435;-60